Airport View

Enter AWOS ICAO identifier for current METAR.

ex. KFNL

KISO 261056Z 34005KT 10SM SCT075 23/19 A3008

26 Jun 2019 11:49

Frequency: 132.75

Phone: 252-522-2712

Other Area AWOS: KGSB - KGWW - KPGV - KDPL

TAF KISO 260523Z 2606/2706 VRB03KT P6SM BKN250 FM261600 02008KT P6SM SCT050 FM270000 00000KT P6SM SKC AMD LTD TO CLD VIS AND WIND